createdAt,value
2022-07-29T00:01:07.421Z,100453.55
2022-07-29T00:03:37.751Z,100455.97
2022-07-29T00:06:08.158Z,100450.89
2022-07-29T00:08:36.907Z,100451.05
2022-07-29T00:11:05.671Z,100450.17
2022-07-29T00:13:34.930Z,100451.13
2022-07-29T00:16:04.894Z,100448.96
2022-07-29T00:18:34.491Z,100451.77
2022-07-29T00:21:03.227Z,100454.90
2022-07-29T00:23:36.605Z,100464.31
2022-07-29T00:26:03.282Z,100459.97
2022-07-29T00:28:32.021Z,100458.27
2022-07-29T00:31:01.352Z,100457.31
2022-07-29T00:33:30.610Z,100454.77
2022-07-29T00:35:59.365Z,100451.75
2022-07-29T00:38:28.109Z,100445.36
2022-07-29T00:40:56.941Z,100440.77
2022-07-29T00:43:26.070Z,100451.98
2022-07-29T00:45:54.794Z,100448.73
2022-07-29T00:48:23.535Z,100446.92
2022-07-29T00:50:52.386Z,100446.80
2022-07-29T00:53:21.271Z,100449.12
2022-07-29T00:55:50.765Z,100450.56
2022-07-29T00:58:21.375Z,100446.22
2022-07-29T01:00:50.148Z,100457.07
2022-07-29T01:03:18.915Z,100447.78
2022-07-29T01:05:51.284Z,100449.59
2022-07-29T01:08:20.091Z,100447.06
2022-07-29T01:10:48.902Z,100452.72
2022-07-29T01:13:18.302Z,100450.55
2022-07-29T01:15:49.875Z,100446.67
2022-07-29T01:18:22.184Z,100450.53
2022-07-29T01:20:57.712Z,100452.79
2022-07-29T01:23:37.067Z,100442.06
2022-07-29T01:26:14.168Z,100440.73
2022-07-29T01:28:50.413Z,100439.99
2022-07-29T01:31:25.259Z,100437.80
2022-07-29T01:33:55.971Z,100432.02
2022-07-29T01:36:25.646Z,100443.47
2022-07-29T01:39:01.924Z,100435.90
2022-07-29T01:41:32.170Z,100432.88
2022-07-29T01:44:18.088Z,100430.34
2022-07-29T01:46:48.838Z,100431.53
2022-07-29T01:49:19.250Z,100429.84
2022-07-29T01:51:52.721Z,100429.59
2022-07-29T01:54:29.002Z,100429.23
2022-07-29T01:56:58.408Z,100420.06
2022-07-29T01:59:28.576Z,100420.05
2022-07-29T02:01:58.969Z,100417.88
2022-07-29T02:04:30.281Z,100416.92
2022-07-29T02:07:00.717Z,100413.77
2022-07-29T02:09:30.422Z,100412.67
2022-07-29T02:12:00.686Z,100406.53
2022-07-29T02:14:30.736Z,100405.91
2022-07-29T02:17:01.166Z,100406.84
2022-07-29T02:19:32.457Z,100408.53
2022-07-29T02:22:02.143Z,100403.23
2022-07-29T02:24:32.243Z,100406.00
2022-07-29T02:27:02.627Z,100409.02
2022-07-29T02:29:37.945Z,100407.81
2022-07-29T02:32:07.649Z,100409.25
2022-07-29T02:34:48.817Z,100411.05
2022-07-29T02:37:18.321Z,100410.44
2022-07-29T02:39:48.747Z,100410.52
2022-07-29T02:42:22.311Z,100411.73
2022-07-29T02:44:51.064Z,100415.22
2022-07-29T02:47:28.042Z,100416.77
2022-07-29T02:49:58.872Z,100406.06
2022-07-29T02:52:30.759Z,100407.73
2022-07-29T02:55:01.023Z,100406.55
2022-07-29T02:57:31.268Z,100414.83
2022-07-29T03:00:04.468Z,100416.01
2022-07-29T03:02:34.779Z,100409.53
2022-07-29T03:05:05.566Z,100414.60
2022-07-29T03:07:35.875Z,100406.17
2022-07-29T03:10:05.778Z,100413.28
2022-07-29T03:12:37.558Z,100414.13
2022-07-29T03:15:06.792Z,100416.66
2022-07-29T03:17:35.977Z,100423.77
2022-07-29T03:20:05.295Z,100419.91
2022-07-29T03:22:35.091Z,100418.94
2022-07-29T03:25:05.343Z,100421.37
2022-07-29T03:27:36.309Z,100429.68
2022-07-29T03:30:08.858Z,100417.53
2022-07-29T03:32:38.008Z,100418.27
2022-07-29T03:35:07.236Z,100421.91
2022-07-29T03:37:37.789Z,100420.47
2022-07-29T03:40:08.095Z,100425.40
2022-07-29T03:42:38.509Z,100423.23
2022-07-29T03:45:11.137Z,100422.88
2022-07-29T03:47:50.834Z,100422.06
2022-07-29T03:50:14.193Z,100422.20
2022-07-29T03:52:43.577Z,100429.45
2022-07-29T03:55:16.500Z,100426.31
2022-07-29T03:57:47.502Z,100430.19
2022-07-29T04:00:17.652Z,100426.12
2022-07-29T04:02:50.113Z,100426.97
2022-07-29T04:05:19.492Z,100428.57
2022-07-29T04:07:48.797Z,100424.02
2022-07-29T04:10:26.871Z,100423.52
2022-07-29T04:12:51.999Z,100424.59
2022-07-29T04:15:20.909Z,100425.99
2022-07-29T04:17:49.709Z,100421.47
2022-07-29T04:20:19.489Z,100428.28
2022-07-29T04:22:48.285Z,100426.13
2022-07-29T04:25:17.098Z,100421.03
2022-07-29T04:28:04.136Z,100420.53
2022-07-29T04:30:33.839Z,100418.64
2022-07-29T04:33:06.829Z,100417.88
2022-07-29T04:35:38.581Z,100414.00
2022-07-29T04:38:07.799Z,100417.42
2022-07-29T04:40:38.707Z,100413.22
2022-07-29T04:43:07.624Z,100411.48
2022-07-29T04:45:37.301Z,100418.52
2022-07-29T04:48:06.407Z,100405.89
2022-07-29T04:50:35.232Z,100404.96
2022-07-29T04:53:04.016Z,100404.27
2022-07-29T04:55:33.967Z,100403.27
2022-07-29T04:58:02.732Z,100403.88
2022-07-29T05:00:33.303Z,100403.23
2022-07-29T05:03:01.950Z,100416.09
2022-07-29T05:05:30.782Z,100412.61
2022-07-29T05:07:59.656Z,100406.89
2022-07-29T05:10:29.065Z,100405.46
2022-07-29T05:12:57.805Z,100409.02
2022-07-29T05:15:26.640Z,100404.27
2022-07-29T05:17:55.437Z,100413.27
2022-07-29T05:20:26.833Z,100413.94
2022-07-29T05:22:57.556Z,100415.45
2022-07-29T05:25:43.608Z,100407.14
2022-07-29T05:27:57.987Z,100400.81
2022-07-29T05:30:26.718Z,100409.13
2022-07-29T05:32:55.442Z,100408.73
2022-07-29T05:35:24.158Z,100409.62
2022-07-29T05:37:53.028Z,100407.98
2022-07-29T05:40:21.752Z,100402.34
2022-07-29T05:42:50.481Z,100402.36
2022-07-29T05:45:19.193Z,100405.88
2022-07-29T05:47:48.010Z,100402.39
2022-07-29T05:50:16.818Z,100403.19
2022-07-29T05:52:45.547Z,100405.25
2022-07-29T05:55:14.343Z,100410.00
2022-07-29T05:57:44.454Z,100407.66
2022-07-29T06:00:13.492Z,100406.55
2022-07-29T06:02:42.229Z,100405.39
2022-07-29T06:05:16.386Z,100412.17
2022-07-29T06:07:50.939Z,100403.59
2022-07-29T06:10:12.727Z,100409.03
2022-07-29T06:12:41.634Z,100408.20
2022-07-29T06:15:10.764Z,100410.27
2022-07-29T06:17:39.504Z,100404.99
2022-07-29T06:20:10.833Z,100407.02
2022-07-29T06:22:39.570Z,100404.00
2022-07-29T06:25:09.948Z,100400.31
2022-07-29T06:27:39.706Z,100402.69
2022-07-29T06:30:09.641Z,100392.63
2022-07-29T06:32:42.914Z,100387.58
2022-07-29T06:35:39.353Z,100386.73
2022-07-29T06:37:40.293Z,100390.49
2022-07-29T06:40:27.791Z,100395.27
2022-07-29T06:42:56.596Z,100391.81
2022-07-29T06:45:31.596Z,100400.05
2022-07-29T06:48:00.601Z,100402.41
2022-07-29T06:50:45.913Z,100402.61
2022-07-29T06:53:14.951Z,100407.15
2022-07-29T06:55:43.738Z,100402.72
2022-07-29T06:58:12.897Z,100408.09
2022-07-29T07:00:41.683Z,100407.20
2022-07-29T07:03:10.409Z,100402.93
2022-07-29T07:05:40.134Z,100401.89
2022-07-29T07:08:09.422Z,100398.92
2022-07-29T07:10:38.331Z,100400.42
2022-07-29T07:13:07.838Z,100404.61
2022-07-29T07:15:39.015Z,100403.47
2022-07-29T07:18:09.174Z,100403.12
2022-07-29T07:20:37.948Z,100408.50
2022-07-29T07:23:07.853Z,100401.44
2022-07-29T07:25:36.652Z,100398.03
2022-07-29T07:28:07.019Z,100393.33
2022-07-29T07:30:35.746Z,100387.79
2022-07-29T07:33:04.671Z,100390.61
2022-07-29T07:35:33.545Z,100396.62
2022-07-29T07:38:02.294Z,100380.30
2022-07-29T07:40:31.305Z,100381.97
2022-07-29T07:43:00.038Z,100387.77
2022-07-29T07:45:29.406Z,100391.95
2022-07-29T07:47:58.391Z,100380.13
2022-07-29T07:50:27.196Z,100375.55
2022-07-29T07:52:58.742Z,100381.69
2022-07-29T07:55:27.888Z,100378.91
2022-07-29T07:57:56.872Z,100372.55
2022-07-29T08:00:25.777Z,100376.88
2022-07-29T08:02:54.536Z,100377.99
2022-07-29T08:05:23.336Z,100368.39
2022-07-29T08:07:52.153Z,100375.38
2022-07-29T08:10:39.190Z,100383.59
2022-07-29T08:13:09.197Z,100375.11
2022-07-29T08:15:37.959Z,100378.83
2022-07-29T08:18:08.920Z,100370.91
2022-07-29T08:20:38.924Z,100372.95
2022-07-29T08:23:09.520Z,100366.11
2022-07-29T08:25:40.560Z,100369.56
2022-07-29T08:28:09.688Z,100379.03
2022-07-29T08:30:38.482Z,100378.52
2022-07-29T08:33:07.223Z,100378.70
2022-07-29T08:35:36.940Z,100379.24
2022-07-29T08:38:05.688Z,100387.72
2022-07-29T08:40:34.433Z,100376.78
2022-07-29T08:43:07.144Z,100383.88
2022-07-29T08:45:47.749Z,100379.60
2022-07-29T08:48:17.875Z,100377.72
2022-07-29T08:50:47.083Z,100387.98
2022-07-29T08:53:17.233Z,100380.31
2022-07-29T08:55:47.529Z,100373.98
2022-07-29T08:58:16.522Z,100366.31
2022-07-29T09:00:47.608Z,100361.38
2022-07-29T09:03:19.667Z,100357.15
2022-07-29T09:05:49.334Z,100359.37
2022-07-29T09:08:19.098Z,100360.32
2022-07-29T09:10:48.004Z,100356.34
2022-07-29T09:13:16.747Z,100358.87
2022-07-29T09:15:45.944Z,100355.71
2022-07-29T09:18:20.375Z,100353.84
2022-07-29T09:21:06.164Z,100351.83
2022-07-29T09:23:34.950Z,100354.73
2022-07-29T09:26:05.217Z,100350.53
2022-07-29T09:28:33.947Z,100352.86
2022-07-29T09:31:03.478Z,100352.60
2022-07-29T09:33:39.813Z,100349.20
2022-07-29T09:36:09.425Z,100346.05
2022-07-29T09:38:39.286Z,100344.66
2022-07-29T09:41:09.867Z,100346.05
2022-07-29T09:43:38.677Z,100342.77
2022-07-29T09:46:13.738Z,100346.45
2022-07-29T09:48:42.586Z,100341.70
2022-07-29T09:51:24.201Z,100331.20
2022-07-29T09:53:51.582Z,100330.49
2022-07-29T09:56:22.027Z,100330.63
2022-07-29T09:58:52.277Z,100330.08
2022-07-29T10:01:22.561Z,100325.27
2022-07-29T10:03:54.611Z,100328.08
2022-07-29T10:06:23.368Z,100319.98
2022-07-29T10:08:52.232Z,100317.41
2022-07-29T10:11:21.136Z,100319.66
2022-07-29T10:13:50.048Z,100320.02
2022-07-29T10:16:19.041Z,100320.81
2022-07-29T10:18:48.199Z,100324.05
2022-07-29T10:21:35.335Z,100318.27
2022-07-29T10:23:47.869Z,100312.89
2022-07-29T10:26:17.167Z,100317.78
2022-07-29T10:28:45.902Z,100311.87
2022-07-29T10:31:16.191Z,100314.67
2022-07-29T10:33:55.498Z,100307.92
2022-07-29T10:36:30.674Z,100307.00
2022-07-29T10:39:22.452Z,100301.98
2022-07-29T10:41:55.482Z,100290.08
2022-07-29T10:44:26.090Z,100288.32
2022-07-29T10:46:55.102Z,100298.88
2022-07-29T10:49:26.725Z,100296.45
2022-07-29T10:52:02.733Z,100288.91
2022-07-29T10:54:37.035Z,100288.69
2022-07-29T10:57:21.094Z,100288.72
2022-07-29T10:59:53.027Z,100294.22
2022-07-29T11:02:41.929Z,100296.33
2022-07-29T11:05:09.478Z,100298.13
2022-07-29T11:07:45.942Z,100294.91
2022-07-29T11:10:16.315Z,100287.14
2022-07-29T11:12:47.834Z,100285.68
2022-07-29T11:15:21.706Z,100290.55
2022-07-29T11:18:02.465Z,100290.67
2022-07-29T11:20:39.030Z,100288.48
2022-07-29T11:23:33.881Z,100286.42
2022-07-29T11:26:19.900Z,100287.34
2022-07-29T11:28:59.271Z,100282.23
2022-07-29T11:31:42.780Z,100277.75
2022-07-29T11:34:20.877Z,100286.48
2022-07-29T11:37:07.689Z,100287.64
2022-07-29T11:39:37.700Z,100288.81
2022-07-29T11:42:32.178Z,100282.77
2022-07-29T11:44:58.104Z,100295.18
2022-07-29T11:47:28.386Z,100296.07
2022-07-29T11:49:59.869Z,100292.57
2022-07-29T11:52:49.413Z,100288.24
2022-07-29T11:55:09.872Z,100287.48
2022-07-29T11:57:39.303Z,100294.72
2022-07-29T12:00:12.505Z,100302.38
2022-07-29T12:02:48.581Z,100285.69
2022-07-29T12:05:16.326Z,100282.44
2022-07-29T12:07:47.244Z,100287.13
2022-07-29T12:10:19.715Z,100283.79
2022-07-29T12:12:48.336Z,100285.06
2022-07-29T12:15:25.077Z,100286.59
2022-07-29T12:17:55.426Z,100282.50
2022-07-29T12:20:28.170Z,100278.28
2022-07-29T12:22:58.459Z,100277.84
2022-07-29T12:25:32.470Z,100267.82
2022-07-29T12:28:03.391Z,100264.26
2022-07-29T12:30:41.578Z,100265.38
2022-07-29T12:33:14.463Z,100256.30
2022-07-29T12:35:47.812Z,100255.17
2022-07-29T12:38:15.743Z,100253.14
2022-07-29T12:40:45.526Z,100247.63
2022-07-29T12:43:19.476Z,100242.19
2022-07-29T12:45:54.351Z,100242.56
2022-07-29T12:48:36.629Z,100238.47
2022-07-29T12:51:07.188Z,100231.20
2022-07-29T12:53:36.346Z,100236.05
2022-07-29T12:56:20.658Z,100234.58
2022-07-29T12:58:40.185Z,100227.14
2022-07-29T13:01:16.871Z,100228.95
2022-07-29T13:03:57.153Z,100224.41
2022-07-29T13:06:31.887Z,100233.47
2022-07-29T13:09:16.616Z,100224.31
2022-07-29T13:11:52.284Z,100221.34
2022-07-29T13:14:34.417Z,100217.44
2022-07-29T13:17:05.069Z,100211.78
2022-07-29T13:19:35.349Z,100211.02
2022-07-29T13:22:04.258Z,100222.70
2022-07-29T13:24:32.983Z,100222.08
2022-07-29T13:27:01.873Z,100226.41
2022-07-29T13:29:32.241Z,100220.56
2022-07-29T13:32:01.317Z,100216.06
2022-07-29T13:34:32.128Z,100205.44
2022-07-29T13:37:00.874Z,100202.05
2022-07-29T13:39:29.626Z,100198.77
2022-07-29T13:41:58.695Z,100200.80
2022-07-29T13:44:29.982Z,100198.16
2022-07-29T13:47:00.102Z,100199.13
2022-07-29T13:49:28.913Z,100203.05
2022-07-29T13:51:57.849Z,100195.84
2022-07-29T13:54:26.769Z,100203.47
2022-07-29T13:56:56.235Z,100200.27
2022-07-29T13:59:25.040Z,100195.67
2022-07-29T14:01:53.862Z,100195.66
2022-07-29T14:04:24.293Z,100198.38
2022-07-29T14:06:53.196Z,100194.81
2022-07-29T14:09:22.842Z,100190.48
2022-07-29T14:11:52.451Z,100194.38
2022-07-29T14:14:21.668Z,100191.23
2022-07-29T14:16:52.480Z,100186.08
2022-07-29T14:19:21.268Z,100181.64
2022-07-29T14:21:50.822Z,100176.22
2022-07-29T14:24:21.650Z,100179.83
2022-07-29T14:26:51.047Z,100173.03
2022-07-29T14:29:19.924Z,100172.98
2022-07-29T14:31:48.716Z,100176.61
2022-07-29T14:34:17.577Z,100183.53
2022-07-29T14:36:46.407Z,100185.95
2022-07-29T14:39:16.626Z,100176.83
2022-07-29T14:41:46.352Z,100181.56
2022-07-29T14:44:16.383Z,100177.41
2022-07-29T14:46:45.141Z,100180.50
2022-07-29T14:49:16.021Z,100178.97
2022-07-29T14:51:44.811Z,100175.54
2022-07-29T14:54:13.779Z,100180.80
2022-07-29T14:56:46.799Z,100173.67
2022-07-29T14:59:14.167Z,100174.03
2022-07-29T15:01:43.394Z,100170.56
2022-07-29T15:04:12.137Z,100167.35
2022-07-29T15:06:40.943Z,100168.80
2022-07-29T15:09:09.667Z,100167.04
2022-07-29T15:11:38.947Z,100166.92
2022-07-29T15:14:07.954Z,100162.02
2022-07-29T15:16:43.860Z,100157.57
2022-07-29T15:19:11.623Z,100150.55
2022-07-29T15:21:41.670Z,100143.45
2022-07-29T15:24:10.729Z,100146.52
2022-07-29T15:26:39.492Z,100141.79
2022-07-29T15:29:09.163Z,100145.20
2022-07-29T15:31:38.126Z,100145.74
2022-07-29T15:34:06.930Z,100148.36
2022-07-29T15:36:51.974Z,100145.86
2022-07-29T15:39:06.165Z,100140.84
2022-07-29T15:41:35.590Z,100141.18
2022-07-29T15:44:05.537Z,100144.33
2022-07-29T15:46:52.152Z,100137.78
2022-07-29T15:49:20.906Z,100136.50
2022-07-29T15:51:51.227Z,100135.36
2022-07-29T15:54:20.120Z,100135.48
2022-07-29T15:56:48.853Z,100132.30
2022-07-29T15:59:22.482Z,100131.26
2022-07-29T16:01:47.998Z,100134.66
2022-07-29T16:04:17.409Z,100127.30
2022-07-29T16:06:47.364Z,100133.34
2022-07-29T16:09:17.969Z,100132.39
2022-07-29T16:11:51.084Z,100129.19
2022-07-29T16:14:19.957Z,100129.98
2022-07-29T16:16:49.232Z,100127.09
2022-07-29T16:19:17.912Z,100126.95
2022-07-29T16:21:47.635Z,100123.02
2022-07-29T16:27:18.997Z,100115.75
2022-07-29T16:29:49.412Z,100121.79
2022-07-29T16:32:22.499Z,100114.61
2022-07-29T16:34:49.692Z,100116.25
2022-07-29T16:37:18.560Z,100120.28
2022-07-29T16:39:47.289Z,100119.71
2022-07-29T16:42:30.961Z,100115.91
2022-07-29T16:44:46.568Z,100112.14
2022-07-29T16:47:17.225Z,100112.30
2022-07-29T16:49:47.767Z,100103.05
2022-07-29T16:52:17.560Z,100110.80
2022-07-29T16:54:46.287Z,100106.38
2022-07-29T16:57:15.088Z,100103.02
2022-07-29T16:59:44.202Z,100107.76
2022-07-29T17:02:13.012Z,100107.05
2022-07-29T17:04:41.754Z,100107.44
2022-07-29T17:07:11.749Z,100106.36
2022-07-29T17:09:41.479Z,100109.99
2022-07-29T17:12:10.442Z,100110.11
2022-07-29T17:14:39.204Z,100099.45
2022-07-29T17:17:13.806Z,100105.28
2022-07-29T17:19:39.014Z,100108.92
2022-07-29T17:22:15.856Z,100109.77
2022-07-29T17:24:38.918Z,100111.35
2022-07-29T17:27:09.489Z,100111.24
2022-07-29T17:29:38.970Z,100104.48
2022-07-29T17:32:09.096Z,100104.73
2022-07-29T17:34:38.684Z,100107.50
2022-07-29T17:37:08.354Z,100110.56
2022-07-29T17:39:37.346Z,100109.23
2022-07-29T17:42:06.213Z,100110.75
2022-07-29T17:44:36.408Z,100110.55
2022-07-29T17:47:06.222Z,100113.56
2022-07-29T17:49:36.452Z,100117.70
2022-07-29T17:52:06.382Z,100126.86
2022-07-29T17:54:35.108Z,100121.42
2022-07-29T17:57:03.854Z,100119.58
2022-07-29T17:59:32.591Z,100122.39
2022-07-29T18:02:01.385Z,100123.84
2022-07-29T18:04:31.450Z,100135.18
2022-07-29T18:07:00.611Z,100133.95
2022-07-29T18:09:29.995Z,100134.00
2022-07-29T18:11:59.194Z,100137.85
2022-07-29T18:14:28.020Z,100137.36
2022-07-29T18:16:58.041Z,100139.92
2022-07-29T18:19:26.909Z,100139.91
2022-07-29T18:21:58.210Z,100142.24
2022-07-29T18:24:29.772Z,100138.10
2022-07-29T18:26:58.762Z,100139.17
2022-07-29T18:29:29.454Z,100144.45
2022-07-29T18:31:59.981Z,100141.56
2022-07-29T18:34:29.173Z,100144.81
2022-07-29T18:36:59.268Z,100146.17
2022-07-29T18:39:28.180Z,100142.73
2022-07-29T18:41:56.992Z,100139.95
2022-07-29T18:44:43.541Z,100138.48
2022-07-29T18:47:07.296Z,100138.55
2022-07-29T18:49:38.545Z,100146.61
2022-07-29T18:52:07.271Z,100143.53
2022-07-29T18:54:36.189Z,100144.94
2022-07-29T18:57:54.409Z,100139.95
2022-07-29T18:59:35.643Z,100144.43
2022-07-29T19:02:05.272Z,100142.72
2022-07-29T19:04:34.048Z,100145.35
2022-07-29T19:07:03.450Z,100140.23
2022-07-29T19:09:32.188Z,100149.86
2022-07-29T19:12:03.638Z,100147.81
2022-07-29T19:14:31.743Z,100142.98
2022-07-29T19:17:00.790Z,100142.95
2022-07-29T19:19:29.747Z,100147.78
2022-07-29T19:21:58.551Z,100153.45
2022-07-29T19:24:27.277Z,100148.74
2022-07-29T19:26:57.311Z,100149.13
2022-07-29T19:29:26.934Z,100151.39
2022-07-29T19:31:55.712Z,100156.25
2022-07-29T19:34:24.450Z,100155.89
2022-07-29T19:36:53.437Z,100154.04
2022-07-29T19:39:31.802Z,100151.56
2022-07-29T19:41:56.467Z,100152.00
2022-07-29T19:44:24.091Z,100155.52
2022-07-29T19:46:53.861Z,100148.47
2022-07-29T19:49:22.734Z,100156.25
2022-07-29T19:51:53.480Z,100149.22
2022-07-29T19:54:21.938Z,100150.60
2022-07-29T19:56:50.662Z,100148.59
2022-07-29T19:59:20.770Z,100144.44
2022-07-29T20:01:50.799Z,100145.02
2022-07-29T20:04:19.616Z,100144.80
2022-07-29T20:06:49.521Z,100149.77
2022-07-29T20:09:20.531Z,100150.81
2022-07-29T20:11:48.632Z,100145.27
2022-07-29T20:14:17.380Z,100147.20
2022-07-29T20:16:46.198Z,100143.20
2022-07-29T20:19:15.189Z,100140.98
2022-07-29T20:21:43.931Z,100136.53
2022-07-29T20:24:12.676Z,100122.86
2022-07-29T20:26:42.455Z,100134.63
2022-07-29T20:29:11.208Z,100142.53
2022-07-29T20:31:40.020Z,100147.78
2022-07-29T20:34:08.794Z,100154.48
2022-07-29T20:36:37.708Z,100159.20
2022-07-29T20:39:07.448Z,100168.23
2022-07-29T20:41:36.199Z,100172.78
2022-07-29T20:44:05.687Z,100172.28
2022-07-29T20:46:34.678Z,100174.16
2022-07-29T20:49:04.292Z,100178.52
2022-07-29T20:51:33.035Z,100181.20
2022-07-29T20:54:03.662Z,100178.98
2022-07-29T20:56:33.431Z,100182.20
2022-07-29T20:59:02.818Z,100180.02
2022-07-29T21:01:31.633Z,100184.05
2022-07-29T21:04:01.894Z,100182.67
2022-07-29T21:06:31.260Z,100178.59
2022-07-29T21:09:01.066Z,100176.91
2022-07-29T21:11:44.622Z,100171.88
2022-07-29T21:14:01.477Z,100165.55
2022-07-29T21:16:32.054Z,100157.52
2022-07-29T21:19:02.605Z,100155.50
2022-07-29T21:21:31.357Z,100148.64
2022-07-29T21:24:01.745Z,100142.81
2022-07-29T21:26:30.559Z,100146.17
2022-07-29T21:28:59.391Z,100151.17
2022-07-29T21:31:28.499Z,100153.20
2022-07-29T21:33:57.346Z,100151.53
2022-07-29T21:36:47.843Z,100148.55
2022-07-29T21:38:56.982Z,100147.03
2022-07-29T21:41:25.800Z,100148.20
2022-07-29T21:43:55.740Z,100148.22
2022-07-29T21:46:25.988Z,100145.19
2022-07-29T21:48:54.900Z,100144.51
2022-07-29T21:51:23.691Z,100150.20
2022-07-29T21:53:53.233Z,100158.05
2022-07-29T21:56:22.641Z,100159.19
2022-07-29T21:58:52.474Z,100164.50
2022-07-29T22:01:21.284Z,100160.32
2022-07-29T22:03:50.227Z,100161.48
2022-07-29T22:06:19.014Z,100159.30
2022-07-29T22:08:48.076Z,100154.77
2022-07-29T22:11:16.974Z,100147.08
2022-07-29T22:13:49.336Z,100142.56
2022-07-29T22:16:18.093Z,100141.03
2022-07-29T22:18:48.325Z,100143.20
2022-07-29T22:21:17.616Z,100153.67
2022-07-29T22:23:46.531Z,100153.49
2022-07-29T22:26:15.392Z,100155.34
2022-07-29T22:28:44.857Z,100146.63
2022-07-29T22:31:14.757Z,100145.45
2022-07-29T22:33:43.844Z,100142.69
2022-07-29T22:36:12.690Z,100133.52
2022-07-29T22:38:41.510Z,100130.12
2022-07-29T22:41:11.280Z,100129.55
2022-07-29T22:43:41.765Z,100128.37
2022-07-29T22:46:11.201Z,100129.88
2022-07-29T22:48:41.914Z,100137.02
2022-07-29T22:51:10.769Z,100132.77
2022-07-29T22:53:40.580Z,100124.56
2022-07-29T22:56:09.400Z,100120.02
2022-07-29T22:58:39.156Z,100118.84
2022-07-29T23:01:07.975Z,100111.31
2022-07-29T23:03:36.836Z,100115.30
2022-07-29T23:06:06.076Z,100109.11
2022-07-29T23:08:35.292Z,100112.09
2022-07-29T23:11:05.102Z,100111.59
2022-07-29T23:13:33.834Z,100108.36
2022-07-29T23:16:02.671Z,100106.65
2022-07-29T23:18:32.558Z,100103.48
2022-07-29T23:21:01.296Z,100097.33
2022-07-29T23:23:32.229Z,100095.47
2022-07-29T23:26:00.642Z,100094.66
2022-07-29T23:28:29.388Z,100089.13
2022-07-29T23:30:58.180Z,100087.30
2022-07-29T23:33:27.076Z,100086.42
2022-07-29T23:35:55.800Z,100092.57
2022-07-29T23:38:24.571Z,100092.45
2022-07-29T23:40:53.329Z,100082.27
2022-07-29T23:43:22.070Z,100081.61
2022-07-29T23:45:50.909Z,100084.28
2022-07-29T23:48:21.875Z,100079.62
2022-07-29T23:50:50.684Z,100076.61
2022-07-29T23:53:19.563Z,100074.09
2022-07-29T23:55:48.397Z,100073.94
2022-07-29T23:58:17.204Z,100077.80
